Portada
METAR-TAF:

METAR-TAF

Aeropuertos :

Aurillac, Francia

latitud: 44-53N, longitud: 002-25E, altitud: 639 m

Observación

El informe se hizo hace 48 minutos, a las 08:00 UTC
Viento 2 kt con dirección variable
Temperatura 18°C
Humedad 83%
Presión 1023 hPa
Visibilidad 10 km o más
Cielo nuboso a una altura de 800 ft
Cielo nuboso a una altura de 1200 ft

METAR: LFLW 180800Z AUTO VRB02KT 9999 BKN008 BKN012 18/15 Q1023 BECMG NSC

Hora: 10:48 (08:48 UTC)

Pronóstico

El informe se hizo hace 48 minutos, a las 08:00 UTC
Pronóstico válido del 18 a las 09 UTC al 18 a las 18 UTC
Viento 6 kt del norte-noroeste
Visibilidad 10 km o más
Nubes dispersas a una altura de 700 ft
Evolucionando progresivamente
del 18 a las 09 UTC al 18 a las 12 UTC
Visibilidad 10 km o más
sin nubes por debajo de 1500 m y sin presencia de cumulonimbus.

TAF: LFLW 180800Z 1809/1818 33006KT 9999 SCT007 BECMG 1809/1812 CAVOK

Observaciones y pronósticos meteorológicos de más de 4000 aeropuertos (mensajes METAR y TAF).

Los puntos amarillos y rojos representan las estaciones disponibles.

Ponga el ratón en el punto deseado para ver el nombre de la estación.

Haga clic para ver las observaciones y los pronósticos meteorológicos.

Para cambiar el mapa : haga clic en los botones verdes con una cruz de color negro para hacer un zoom, en el botón verde con un guión para alejar o en las flechas verdes para mapas adyacentes.


METAR-TAF: